sensor_id;sensor_type;location;lat;lon;timestamp;P1;durP1;ratioP1;P2;durP2;ratioP2
4508;SDS011;2267;48.816;9.230;2023-12-29T00:02:08;3.20;;;2.60;;
4508;SDS011;2267;48.816;9.230;2023-12-29T00:04:35;3.20;;;2.87;;
4508;SDS011;2267;48.816;9.230;2023-12-29T00:07:02;4.10;;;2.80;;
4508;SDS011;2267;48.816;9.230;2023-12-29T00:09:29;3.30;;;2.80;;
4508;SDS011;2267;48.816;9.230;2023-12-29T00:11:56;3.67;;;2.90;;
4508;SDS011;2267;48.816;9.230;2023-12-29T00:14:23;3.60;;;3.30;;
4508;SDS011;2267;48.816;9.230;2023-12-29T00:16:50;3.30;;;3.00;;
4508;SDS011;2267;48.816;9.230;2023-12-29T00:19:16;3.07;;;2.50;;
4508;SDS011;2267;48.816;9.230;2023-12-29T00:21:44;3.47;;;2.93;;
4508;SDS011;2267;48.816;9.230;2023-12-29T00:24:11;3.10;;;2.80;;
4508;SDS011;2267;48.816;9.230;2023-12-29T00:26:37;3.00;;;2.70;;
4508;SDS011;2267;48.816;9.230;2023-12-29T00:29:04;2.97;;;2.50;;
4508;SDS011;2267;48.816;9.230;2023-12-29T00:31:32;3.80;;;2.97;;
4508;SDS011;2267;48.816;9.230;2023-12-29T00:33:59;3.30;;;3.00;;
4508;SDS011;2267;48.816;9.230;2023-12-29T00:36:26;3.00;;;2.70;;
4508;SDS011;2267;48.816;9.230;2023-12-29T00:38:53;3.13;;;2.93;;
4508;SDS011;2267;48.816;9.230;2023-12-29T00:41:20;4.07;;;3.23;;
4508;SDS011;2267;48.816;9.230;2023-12-29T00:43:47;3.23;;;2.77;;
4508;SDS011;2267;48.816;9.230;2023-12-29T00:46:14;3.30;;;2.87;;
4508;SDS011;2267;48.816;9.230;2023-12-29T00:48:44;4.00;;;3.00;;
4508;SDS011;2267;48.816;9.230;2023-12-29T00:51:12;3.23;;;2.63;;
4508;SDS011;2267;48.816;9.230;2023-12-29T00:53:39;2.90;;;2.60;;
4508;SDS011;2267;48.816;9.230;2023-12-29T00:56:09;3.20;;;2.70;;
4508;SDS011;2267;48.816;9.230;2023-12-29T00:58:37;2.57;;;2.37;;
4508;SDS011;2267;48.816;9.230;2023-12-29T01:01:08;3.33;;;3.00;;
4508;SDS011;2267;48.816;9.230;2023-12-29T01:03:37;3.27;;;2.97;;
4508;SDS011;2267;48.816;9.230;2023-12-29T01:06:05;3.67;;;3.37;;
4508;SDS011;2267;48.816;9.230;2023-12-29T01:08:31;3.20;;;2.90;;
4508;SDS011;2267;48.816;9.230;2023-12-29T01:11:00;3.50;;;3.20;;
4508;SDS011;2267;48.816;9.230;2023-12-29T01:13:26;3.33;;;3.03;;
4508;SDS011;2267;48.816;9.230;2023-12-29T01:15:54;3.40;;;3.10;;
4508;SDS011;2267;48.816;9.230;2023-12-29T01:18:21;3.53;;;3.23;;
4508;SDS011;2267;48.816;9.230;2023-12-29T01:20:48;3.87;;;3.57;;
4508;SDS011;2267;48.816;9.230;2023-12-29T01:23:14;3.60;;;3.30;;
4508;SDS011;2267;48.816;9.230;2023-12-29T01:25:41;3.03;;;2.83;;
4508;SDS011;2267;48.816;9.230;2023-12-29T01:28:08;3.63;;;3.10;;
4508;SDS011;2267;48.816;9.230;2023-12-29T01:30:35;3.50;;;3.20;;
4508;SDS011;2267;48.816;9.230;2023-12-29T01:33:02;3.33;;;3.03;;
4508;SDS011;2267;48.816;9.230;2023-12-29T01:35:29;3.33;;;3.03;;
4508;SDS011;2267;48.816;9.230;2023-12-29T01:37:56;3.80;;;3.50;;
4508;SDS011;2267;48.816;9.230;2023-12-29T01:40:23;4.40;;;3.67;;
4508;SDS011;2267;48.816;9.230;2023-12-29T01:42:50;5.13;;;3.97;;
4508;SDS011;2267;48.816;9.230;2023-12-29T01:45:21;3.30;;;3.00;;
4508;SDS011;2267;48.816;9.230;2023-12-29T01:47:49;4.97;;;3.70;;
4508;SDS011;2267;48.816;9.230;2023-12-29T01:50:21;3.40;;;3.10;;
4508;SDS011;2267;48.816;9.230;2023-12-29T01:52:49;5.47;;;3.37;;
4508;SDS011;2267;48.816;9.230;2023-12-29T01:55:18;3.73;;;3.03;;
4508;SDS011;2267;48.816;9.230;2023-12-29T01:57:49;3.70;;;3.40;;
4508;SDS011;2267;48.816;9.230;2023-12-29T02:00:17;3.60;;;3.30;;
4508;SDS011;2267;48.816;9.230;2023-12-29T02:02:45;4.67;;;4.27;;
4508;SDS011;2267;48.816;9.230;2023-12-29T02:05:13;3.70;;;3.40;;
4508;SDS011;2267;48.816;9.230;2023-12-29T02:07:42;4.83;;;3.60;;
4508;SDS011;2267;48.816;9.230;2023-12-29T02:10:10;3.70;;;3.40;;
4508;SDS011;2267;48.816;9.230;2023-12-29T02:12:42;3.50;;;3.20;;
4508;SDS011;2267;48.816;9.230;2023-12-29T02:15:09;3.70;;;3.13;;
4508;SDS011;2267;48.816;9.230;2023-12-29T02:17:46;4.93;;;4.50;;
4508;SDS011;2267;48.816;9.230;2023-12-29T02:20:18;4.00;;;3.60;;
4508;SDS011;2267;48.816;9.230;2023-12-29T02:22:46;4.40;;;4.10;;
4508;SDS011;2267;48.816;9.230;2023-12-29T02:25:13;3.80;;;3.50;;
4508;SDS011;2267;48.816;9.230;2023-12-29T02:30:17;4.90;;;4.43;;
4508;SDS011;2267;48.816;9.230;2023-12-29T02:32:46;4.70;;;4.30;;
4508;SDS011;2267;48.816;9.230;2023-12-29T02:35:17;4.27;;;3.87;;
4508;SDS011;2267;48.816;9.230;2023-12-29T02:37:48;5.00;;;3.90;;
4508;SDS011;2267;48.816;9.230;2023-12-29T02:40:16;4.13;;;3.73;;
4508;SDS011;2267;48.816;9.230;2023-12-29T02:42:46;4.10;;;3.70;;
4508;SDS011;2267;48.816;9.230;2023-12-29T02:45:14;4.07;;;3.63;;
4508;SDS011;2267;48.816;9.230;2023-12-29T02:47:42;4.43;;;3.60;;
4508;SDS011;2267;48.816;9.230;2023-12-29T02:50:09;5.70;;;4.00;;
4508;SDS011;2267;48.816;9.230;2023-12-29T02:52:37;3.60;;;3.30;;
4508;SDS011;2267;48.816;9.230;2023-12-29T02:55:04;4.50;;;3.90;;
4508;SDS011;2267;48.816;9.230;2023-12-29T02:57:31;4.40;;;4.10;;
4508;SDS011;2267;48.816;9.230;2023-12-29T02:59:58;4.40;;;3.40;;
4508;SDS011;2267;48.816;9.230;2023-12-29T03:02:25;4.03;;;3.63;;
4508;SDS011;2267;48.816;9.230;2023-12-29T03:04:52;4.17;;;3.80;;
4508;SDS011;2267;48.816;9.230;2023-12-29T03:07:18;3.73;;;3.43;;
4508;SDS011;2267;48.816;9.230;2023-12-29T03:09:45;4.27;;;3.87;;
4508;SDS011;2267;48.816;9.230;2023-12-29T03:12:12;3.63;;;3.30;;
4508;SDS011;2267;48.816;9.230;2023-12-29T03:14:39;4.17;;;3.87;;
4508;SDS011;2267;48.816;9.230;2023-12-29T03:17:06;3.47;;;3.17;;
4508;SDS011;2267;48.816;9.230;2023-12-29T03:19:33;5.93;;;4.00;;
4508;SDS011;2267;48.816;9.230;2023-12-29T03:22:00;4.03;;;3.63;;
4508;SDS011;2267;48.816;9.230;2023-12-29T03:24:27;3.73;;;3.43;;
4508;SDS011;2267;48.816;9.230;2023-12-29T03:26:55;3.70;;;3.20;;
4508;SDS011;2267;48.816;9.230;2023-12-29T03:29:22;4.40;;;4.07;;
4508;SDS011;2267;48.816;9.230;2023-12-29T03:31:49;4.03;;;3.60;;
4508;SDS011;2267;48.816;9.230;2023-12-29T03:34:16;4.53;;;4.13;;
4508;SDS011;2267;48.816;9.230;2023-12-29T03:36:43;4.03;;;3.73;;
4508;SDS011;2267;48.816;9.230;2023-12-29T03:39:10;6.80;;;3.77;;
4508;SDS011;2267;48.816;9.230;2023-12-29T03:41:37;3.87;;;3.57;;
4508;SDS011;2267;48.816;9.230;2023-12-29T03:44:04;4.47;;;4.10;;
4508;SDS011;2267;48.816;9.230;2023-12-29T03:46:32;4.70;;;4.30;;
4508;SDS011;2267;48.816;9.230;2023-12-29T03:48:59;3.93;;;3.60;;
4508;SDS011;2267;48.816;9.230;2023-12-29T03:51:26;3.97;;;3.60;;
4508;SDS011;2267;48.816;9.230;2023-12-29T03:53:53;4.10;;;3.70;;
4508;SDS011;2267;48.816;9.230;2023-12-29T03:56:20;3.63;;;3.33;;
4508;SDS011;2267;48.816;9.230;2023-12-29T03:58:47;3.87;;;3.47;;
4508;SDS011;2267;48.816;9.230;2023-12-29T04:01:14;3.90;;;3.60;;
4508;SDS011;2267;48.816;9.230;2023-12-29T04:03:43;3.60;;;3.30;;
4508;SDS011;2267;48.816;9.230;2023-12-29T04:06:10;3.30;;;3.00;;
4508;SDS011;2267;48.816;9.230;2023-12-29T04:08:37;4.13;;;3.73;;
4508;SDS011;2267;48.816;9.230;2023-12-29T04:11:05;3.60;;;3.30;;
4508;SDS011;2267;48.816;9.230;2023-12-29T04:13:32;3.73;;;3.40;;
4508;SDS011;2267;48.816;9.230;2023-12-29T04:15:59;3.73;;;3.43;;
4508;SDS011;2267;48.816;9.230;2023-12-29T04:18:26;3.10;;;2.80;;
4508;SDS011;2267;48.816;9.230;2023-12-29T04:20:53;3.10;;;2.80;;
4508;SDS011;2267;48.816;9.230;2023-12-29T04:23:20;3.07;;;2.77;;
4508;SDS011;2267;48.816;9.230;2023-12-29T04:25:47;4.07;;;3.13;;
4508;SDS011;2267;48.816;9.230;2023-12-29T04:28:13;3.17;;;2.87;;
4508;SDS011;2267;48.816;9.230;2023-12-29T04:30:40;3.70;;;3.10;;
4508;SDS011;2267;48.816;9.230;2023-12-29T04:33:07;2.97;;;2.67;;
4508;SDS011;2267;48.816;9.230;2023-12-29T04:35:34;3.97;;;3.33;;
4508;SDS011;2267;48.816;9.230;2023-12-29T04:38:01;3.90;;;3.47;;
4508;SDS011;2267;48.816;9.230;2023-12-29T04:40:28;2.97;;;2.67;;
4508;SDS011;2267;48.816;9.230;2023-12-29T04:42:55;3.50;;;3.20;;
4508;SDS011;2267;48.816;9.230;2023-12-29T04:45:22;3.03;;;2.83;;
4508;SDS011;2267;48.816;9.230;2023-12-29T04:47:49;3.70;;;3.40;;
4508;SDS011;2267;48.816;9.230;2023-12-29T04:50:18;3.00;;;2.80;;
4508;SDS011;2267;48.816;9.230;2023-12-29T04:52:45;4.03;;;3.60;;
4508;SDS011;2267;48.816;9.230;2023-12-29T04:55:12;3.00;;;2.70;;
4508;SDS011;2267;48.816;9.230;2023-12-29T04:57:39;3.10;;;2.90;;
4508;SDS011;2267;48.816;9.230;2023-12-29T05:00:06;3.33;;;2.90;;
4508;SDS011;2267;48.816;9.230;2023-12-29T05:02:33;2.50;;;2.30;;
4508;SDS011;2267;48.816;9.230;2023-12-29T05:05:00;2.87;;;2.67;;
4508;SDS011;2267;48.816;9.230;2023-12-29T05:07:27;3.60;;;3.30;;
4508;SDS011;2267;48.816;9.230;2023-12-29T05:09:54;3.07;;;2.87;;
4508;SDS011;2267;48.816;9.230;2023-12-29T05:12:21;3.53;;;3.23;;
4508;SDS011;2267;48.816;9.230;2023-12-29T05:14:48;3.30;;;2.97;;
4508;SDS011;2267;48.816;9.230;2023-12-29T05:17:15;3.60;;;3.30;;
4508;SDS011;2267;48.816;9.230;2023-12-29T05:19:41;3.40;;;3.10;;
4508;SDS011;2267;48.816;9.230;2023-12-29T05:22:08;3.20;;;2.90;;
4508;SDS011;2267;48.816;9.230;2023-12-29T05:24:35;4.73;;;3.03;;
4508;SDS011;2267;48.816;9.230;2023-12-29T05:27:03;3.70;;;3.40;;
4508;SDS011;2267;48.816;9.230;2023-12-29T05:29:30;2.90;;;2.70;;
4508;SDS011;2267;48.816;9.230;2023-12-29T05:31:56;2.90;;;2.70;;
4508;SDS011;2267;48.816;9.230;2023-12-29T05:34:23;4.07;;;3.40;;
4508;SDS011;2267;48.816;9.230;2023-12-29T05:36:50;3.47;;;3.17;;
4508;SDS011;2267;48.816;9.230;2023-12-29T05:39:17;3.63;;;3.33;;
4508;SDS011;2267;48.816;9.230;2023-12-29T05:41:44;3.23;;;3.00;;
4508;SDS011;2267;48.816;9.230;2023-12-29T05:44:11;3.63;;;3.30;;
4508;SDS011;2267;48.816;9.230;2023-12-29T05:46:38;4.83;;;3.13;;
4508;SDS011;2267;48.816;9.230;2023-12-29T05:49:04;3.57;;;3.27;;
4508;SDS011;2267;48.816;9.230;2023-12-29T05:51:31;3.80;;;3.50;;
4508;SDS011;2267;48.816;9.230;2023-12-29T05:53:58;3.50;;;3.20;;
4508;SDS011;2267;48.816;9.230;2023-12-29T05:56:25;3.17;;;2.90;;
4508;SDS011;2267;48.816;9.230;2023-12-29T05:58:52;2.87;;;2.67;;
4508;SDS011;2267;48.816;9.230;2023-12-29T06:01:19;4.10;;;3.80;;
4508;SDS011;2267;48.816;9.230;2023-12-29T06:03:46;3.13;;;2.90;;
4508;SDS011;2267;48.816;9.230;2023-12-29T06:06:13;3.20;;;2.90;;
4508;SDS011;2267;48.816;9.230;2023-12-29T06:08:40;4.30;;;3.90;;
4508;SDS011;2267;48.816;9.230;2023-12-29T06:11:07;3.87;;;3.57;;
4508;SDS011;2267;48.816;9.230;2023-12-29T06:13:34;3.30;;;3.10;;
4508;SDS011;2267;48.816;9.230;2023-12-29T06:16:01;6.50;;;3.53;;
4508;SDS011;2267;48.816;9.230;2023-12-29T06:18:29;4.50;;;4.10;;
4508;SDS011;2267;48.816;9.230;2023-12-29T06:20:56;3.83;;;3.00;;
4508;SDS011;2267;48.816;9.230;2023-12-29T06:23:22;3.87;;;3.57;;
4508;SDS011;2267;48.816;9.230;2023-12-29T06:25:51;4.03;;;3.73;;
4508;SDS011;2267;48.816;9.230;2023-12-29T06:28:18;3.57;;;3.27;;
4508;SDS011;2267;48.816;9.230;2023-12-29T06:30:45;5.10;;;4.03;;
4508;SDS011;2267;48.816;9.230;2023-12-29T06:33:12;3.60;;;3.30;;
4508;SDS011;2267;48.816;9.230;2023-12-29T06:35:39;3.70;;;3.13;;
4508;SDS011;2267;48.816;9.230;2023-12-29T06:38:06;3.33;;;3.00;;
4508;SDS011;2267;48.816;9.230;2023-12-29T06:40:33;3.77;;;3.47;;
4508;SDS011;2267;48.816;9.230;2023-12-29T06:43:00;3.00;;;2.70;;
4508;SDS011;2267;48.816;9.230;2023-12-29T06:45:26;3.77;;;3.47;;
4508;SDS011;2267;48.816;9.230;2023-12-29T06:47:53;3.47;;;3.17;;
4508;SDS011;2267;48.816;9.230;2023-12-29T06:50:20;3.90;;;3.60;;
4508;SDS011;2267;48.816;9.230;2023-12-29T06:52:47;3.70;;;3.20;;
4508;SDS011;2267;48.816;9.230;2023-12-29T06:55:14;3.40;;;2.60;;
4508;SDS011;2267;48.816;9.230;2023-12-29T06:57:41;3.43;;;3.00;;
4508;SDS011;2267;48.816;9.230;2023-12-29T07:00:08;3.30;;;3.10;;
4508;SDS011;2267;48.816;9.230;2023-12-29T07:02:38;3.00;;;2.80;;
4508;SDS011;2267;48.816;9.230;2023-12-29T07:05:08;2.70;;;2.50;;
4508;SDS011;2267;48.816;9.230;2023-12-29T07:07:35;3.63;;;3.00;;
4508;SDS011;2267;48.816;9.230;2023-12-29T07:10:04;4.47;;;3.13;;
4508;SDS011;2267;48.816;9.230;2023-12-29T07:12:32;3.97;;;3.00;;
4508;SDS011;2267;48.816;9.230;2023-12-29T07:14:59;3.20;;;2.90;;
4508;SDS011;2267;48.816;9.230;2023-12-29T07:17:26;3.00;;;2.77;;
4508;SDS011;2267;48.816;9.230;2023-12-29T07:19:53;2.77;;;2.57;;
4508;SDS011;2267;48.816;9.230;2023-12-29T07:22:20;3.17;;;2.97;;
4508;SDS011;2267;48.816;9.230;2023-12-29T07:24:47;3.30;;;3.00;;
4508;SDS011;2267;48.816;9.230;2023-12-29T07:27:13;3.23;;;2.90;;
4508;SDS011;2267;48.816;9.230;2023-12-29T07:29:40;2.73;;;2.53;;
4508;SDS011;2267;48.816;9.230;2023-12-29T07:32:07;3.40;;;2.27;;
4508;SDS011;2267;48.816;9.230;2023-12-29T07:34:34;3.20;;;2.90;;
4508;SDS011;2267;48.816;9.230;2023-12-29T07:37:02;3.13;;;2.83;;
4508;SDS011;2267;48.816;9.230;2023-12-29T07:39:29;3.10;;;2.80;;
4508;SDS011;2267;48.816;9.230;2023-12-29T07:41:56;3.53;;;3.00;;
4508;SDS011;2267;48.816;9.230;2023-12-29T07:44:22;3.27;;;2.97;;
4508;SDS011;2267;48.816;9.230;2023-12-29T07:46:50;2.70;;;2.43;;
4508;SDS011;2267;48.816;9.230;2023-12-29T07:49:16;3.07;;;2.77;;
4508;SDS011;2267;48.816;9.230;2023-12-29T07:51:46;2.40;;;2.20;;
4508;SDS011;2267;48.816;9.230;2023-12-29T07:54:13;2.73;;;2.30;;
4508;SDS011;2267;48.816;9.230;2023-12-29T07:56:40;2.70;;;2.50;;
4508;SDS011;2267;48.816;9.230;2023-12-29T07:59:07;3.20;;;2.90;;
4508;SDS011;2267;48.816;9.230;2023-12-29T08:01:34;2.80;;;2.60;;
4508;SDS011;2267;48.816;9.230;2023-12-29T08:04:03;2.37;;;2.07;;
4508;SDS011;2267;48.816;9.230;2023-12-29T08:06:30;2.60;;;2.40;;
4508;SDS011;2267;48.816;9.230;2023-12-29T08:08:57;3.93;;;3.00;;
4508;SDS011;2267;48.816;9.230;2023-12-29T08:11:24;3.00;;;2.77;;
4508;SDS011;2267;48.816;9.230;2023-12-29T08:13:50;2.80;;;2.60;;
4508;SDS011;2267;48.816;9.230;2023-12-29T08:19:40;3.17;;;2.80;;
4508;SDS011;2267;48.816;9.230;2023-12-29T08:22:07;3.83;;;3.20;;
4508;SDS011;2267;48.816;9.230;2023-12-29T08:24:34;3.37;;;2.60;;
4508;SDS011;2267;48.816;9.230;2023-12-29T08:27:01;3.73;;;2.73;;
4508;SDS011;2267;48.816;9.230;2023-12-29T08:29:29;2.70;;;2.50;;
4508;SDS011;2267;48.816;9.230;2023-12-29T08:31:56;2.37;;;2.17;;
4508;SDS011;2267;48.816;9.230;2023-12-29T08:34:23;3.60;;;3.13;;
4508;SDS011;2267;48.816;9.230;2023-12-29T08:36:53;2.77;;;2.57;;
4508;SDS011;2267;48.816;9.230;2023-12-29T08:39:20;3.03;;;2.57;;
4508;SDS011;2267;48.816;9.230;2023-12-29T08:41:47;3.13;;;2.93;;
4508;SDS011;2267;48.816;9.230;2023-12-29T08:44:15;3.20;;;2.60;;
4508;SDS011;2267;48.816;9.230;2023-12-29T08:46:42;2.90;;;2.53;;
4508;SDS011;2267;48.816;9.230;2023-12-29T08:49:09;3.23;;;2.93;;
4508;SDS011;2267;48.816;9.230;2023-12-29T08:52:14;2.80;;;2.50;;
4508;SDS011;2267;48.816;9.230;2023-12-29T08:54:41;2.83;;;2.50;;
4508;SDS011;2267;48.816;9.230;2023-12-29T08:57:08;2.70;;;2.50;;
4508;SDS011;2267;48.816;9.230;2023-12-29T08:59:36;5.20;;;2.67;;
4508;SDS011;2267;48.816;9.230;2023-12-29T09:02:03;2.93;;;2.63;;
4508;SDS011;2267;48.816;9.230;2023-12-29T09:04:30;3.10;;;2.67;;
4508;SDS011;2267;48.816;9.230;2023-12-29T09:06:56;2.70;;;2.37;;
4508;SDS011;2267;48.816;9.230;2023-12-29T09:09:23;2.90;;;2.67;;
4508;SDS011;2267;48.816;9.230;2023-12-29T09:11:50;3.83;;;3.53;;
4508;SDS011;2267;48.816;9.230;2023-12-29T09:14:17;4.57;;;3.57;;
4508;SDS011;2267;48.816;9.230;2023-12-29T09:16:44;3.00;;;2.80;;
4508;SDS011;2267;48.816;9.230;2023-12-29T09:19:12;3.47;;;2.90;;
4508;SDS011;2267;48.816;9.230;2023-12-29T09:21:56;2.60;;;2.40;;
4508;SDS011;2267;48.816;9.230;2023-12-29T09:24:23;3.13;;;2.70;;
4508;SDS011;2267;48.816;9.230;2023-12-29T09:26:49;3.23;;;2.93;;
4508;SDS011;2267;48.816;9.230;2023-12-29T09:29:18;2.60;;;2.40;;
4508;SDS011;2267;48.816;9.230;2023-12-29T09:31:45;3.20;;;2.90;;
4508;SDS011;2267;48.816;9.230;2023-12-29T09:34:12;3.43;;;2.70;;
4508;SDS011;2267;48.816;9.230;2023-12-29T09:36:39;2.90;;;2.60;;
4508;SDS011;2267;48.816;9.230;2023-12-29T09:39:06;2.57;;;2.37;;
4508;SDS011;2267;48.816;9.230;2023-12-29T09:41:33;2.57;;;2.23;;
4508;SDS011;2267;48.816;9.230;2023-12-29T09:44:02;3.10;;;2.73;;
4508;SDS011;2267;48.816;9.230;2023-12-29T09:46:31;3.40;;;2.20;;
4508;SDS011;2267;48.816;9.230;2023-12-29T09:49:00;2.80;;;2.60;;
4508;SDS011;2267;48.816;9.230;2023-12-29T09:51:31;3.10;;;2.27;;
4508;SDS011;2267;48.816;9.230;2023-12-29T09:53:58;2.03;;;1.83;;
4508;SDS011;2267;48.816;9.230;2023-12-29T09:56:26;2.40;;;2.20;;
4508;SDS011;2267;48.816;9.230;2023-12-29T09:58:53;2.43;;;2.23;;
4508;SDS011;2267;48.816;9.230;2023-12-29T10:01:22;2.70;;;2.50;;
4508;SDS011;2267;48.816;9.230;2023-12-29T10:03:50;2.70;;;2.50;;
4508;SDS011;2267;48.816;9.230;2023-12-29T10:06:19;2.20;;;1.73;;
4508;SDS011;2267;48.816;9.230;2023-12-29T10:08:49;2.10;;;1.90;;
4508;SDS011;2267;48.816;9.230;2023-12-29T10:11:17;2.27;;;2.07;;
4508;SDS011;2267;48.816;9.230;2023-12-29T10:13:47;3.93;;;2.30;;
4508;SDS011;2267;48.816;9.230;2023-12-29T10:16:32;2.30;;;1.90;;
4508;SDS011;2267;48.816;9.230;2023-12-29T10:21:44;2.30;;;2.03;;
4508;SDS011;2267;48.816;9.230;2023-12-29T10:24:21;2.30;;;2.10;;
4508;SDS011;2267;48.816;9.230;2023-12-29T10:26:49;2.57;;;1.80;;
4508;SDS011;2267;48.816;9.230;2023-12-29T10:29:16;2.67;;;1.60;;
4508;SDS011;2267;48.816;9.230;2023-12-29T10:31:45;3.50;;;2.10;;
4508;SDS011;2267;48.816;9.230;2023-12-29T10:34:19;4.00;;;2.10;;
4508;SDS011;2267;48.816;9.230;2023-12-29T10:36:49;2.00;;;1.80;;
4508;SDS011;2267;48.816;9.230;2023-12-29T10:39:16;2.20;;;2.00;;
4508;SDS011;2267;48.816;9.230;2023-12-29T10:41:43;2.43;;;2.00;;
4508;SDS011;2267;48.816;9.230;2023-12-29T10:44:10;2.40;;;2.10;;
4508;SDS011;2267;48.816;9.230;2023-12-29T10:46:37;2.23;;;2.03;;
4508;SDS011;2267;48.816;9.230;2023-12-29T10:49:08;3.20;;;2.13;;
4508;SDS011;2267;48.816;9.230;2023-12-29T10:51:36;2.87;;;2.57;;
4508;SDS011;2267;48.816;9.230;2023-12-29T10:54:04;2.70;;;2.00;;
4508;SDS011;2267;48.816;9.230;2023-12-29T10:56:31;3.10;;;2.07;;
4508;SDS011;2267;48.816;9.230;2023-12-29T10:59:02;3.30;;;2.10;;
4508;SDS011;2267;48.816;9.230;2023-12-29T11:01:30;2.00;;;1.73;;
4508;SDS011;2267;48.816;9.230;2023-12-29T11:04:02;3.00;;;1.40;;
4508;SDS011;2267;48.816;9.230;2023-12-29T11:06:40;3.10;;;2.27;;
4508;SDS011;2267;48.816;9.230;2023-12-29T11:09:11;2.80;;;2.07;;
4508;SDS011;2267;48.816;9.230;2023-12-29T11:11:38;3.73;;;2.30;;
4508;SDS011;2267;48.816;9.230;2023-12-29T11:14:05;3.03;;;2.50;;
4508;SDS011;2267;48.816;9.230;2023-12-29T11:16:32;2.80;;;1.83;;
4508;SDS011;2267;48.816;9.230;2023-12-29T11:18:58;1.97;;;1.73;;
4508;SDS011;2267;48.816;9.230;2023-12-29T11:21:26;1.90;;;1.40;;
4508;SDS011;2267;48.816;9.230;2023-12-29T11:23:56;1.90;;;1.53;;
4508;SDS011;2267;48.816;9.230;2023-12-29T11:26:23;2.30;;;1.50;;
4508;SDS011;2267;48.816;9.230;2023-12-29T11:28:51;2.10;;;1.53;;
4508;SDS011;2267;48.816;9.230;2023-12-29T11:31:19;1.97;;;1.43;;
4508;SDS011;2267;48.816;9.230;2023-12-29T11:33:51;2.20;;;1.83;;
4508;SDS011;2267;48.816;9.230;2023-12-29T11:36:28;2.43;;;1.43;;
4508;SDS011;2267;48.816;9.230;2023-12-29T11:42:19;2.47;;;1.73;;
4508;SDS011;2267;48.816;9.230;2023-12-29T11:44:53;2.10;;;1.70;;
4508;SDS011;2267;48.816;9.230;2023-12-29T11:47:36;2.40;;;1.73;;
4508;SDS011;2267;48.816;9.230;2023-12-29T11:50:05;2.50;;;2.17;;
4508;SDS011;2267;48.816;9.230;2023-12-29T11:52:36;1.80;;;1.30;;
4508;SDS011;2267;48.816;9.230;2023-12-29T11:55:08;1.80;;;1.40;;
4508;SDS011;2267;48.816;9.230;2023-12-29T11:57:36;2.70;;;1.90;;
4508;SDS011;2267;48.816;9.230;2023-12-29T12:00:05;2.00;;;1.67;;
4508;SDS011;2267;48.816;9.230;2023-12-29T12:02:33;1.80;;;1.50;;
4508;SDS011;2267;48.816;9.230;2023-12-29T12:04:59;1.90;;;1.50;;
4508;SDS011;2267;48.816;9.230;2023-12-29T12:12:58;1.90;;;1.50;;
4508;SDS011;2267;48.816;9.230;2023-12-29T12:17:56;3.50;;;3.20;;
4508;SDS011;2267;48.816;9.230;2023-12-29T12:20:24;3.20;;;2.90;;
4508;SDS011;2267;48.816;9.230;2023-12-29T12:25:26;3.17;;;2.70;;
4508;SDS011;2267;48.816;9.230;2023-12-29T12:27:56;2.33;;;2.13;;
4508;SDS011;2267;48.816;9.230;2023-12-29T12:30:23;2.20;;;1.70;;
4508;SDS011;2267;48.816;9.230;2023-12-29T12:32:57;2.30;;;2.00;;
4508;SDS011;2267;48.816;9.230;2023-12-29T12:35:25;2.27;;;1.70;;
4508;SDS011;2267;48.816;9.230;2023-12-29T12:38:09;2.07;;;1.63;;
4508;SDS011;2267;48.816;9.230;2023-12-29T12:40:39;2.30;;;1.87;;
4508;SDS011;2267;48.816;9.230;2023-12-29T12:43:06;3.93;;;1.70;;
4508;SDS011;2267;48.816;9.230;2023-12-29T12:45:34;2.67;;;1.67;;
4508;SDS011;2267;48.816;9.230;2023-12-29T12:48:18;2.20;;;1.70;;
4508;SDS011;2267;48.816;9.230;2023-12-29T12:50:48;3.13;;;1.73;;
4508;SDS011;2267;48.816;9.230;2023-12-29T12:53:15;2.50;;;1.50;;
4508;SDS011;2267;48.816;9.230;2023-12-29T12:55:47;2.87;;;1.60;;
4508;SDS011;2267;48.816;9.230;2023-12-29T12:58:19;2.30;;;1.63;;
4508;SDS011;2267;48.816;9.230;2023-12-29T13:00:50;2.10;;;1.70;;
4508;SDS011;2267;48.816;9.230;2023-12-29T13:03:21;2.27;;;1.30;;
4508;SDS011;2267;48.816;9.230;2023-12-29T13:05:48;2.07;;;1.43;;
4508;SDS011;2267;48.816;9.230;2023-12-29T13:08:15;2.10;;;1.53;;
4508;SDS011;2267;48.816;9.230;2023-12-29T13:10:59;1.97;;;1.67;;
4508;SDS011;2267;48.816;9.230;2023-12-29T13:13:38;1.80;;;1.57;;
4508;SDS011;2267;48.816;9.230;2023-12-29T13:16:07;2.30;;;1.60;;
4508;SDS011;2267;48.816;9.230;2023-12-29T13:18:34;3.27;;;2.07;;
4508;SDS011;2267;48.816;9.230;2023-12-29T13:21:02;2.87;;;1.83;;
4508;SDS011;2267;48.816;9.230;2023-12-29T13:23:30;2.83;;;1.50;;
4508;SDS011;2267;48.816;9.230;2023-12-29T13:25:57;2.67;;;2.10;;
4508;SDS011;2267;48.816;9.230;2023-12-29T13:28:28;2.93;;;1.50;;
4508;SDS011;2267;48.816;9.230;2023-12-29T13:30:59;2.60;;;1.50;;
4508;SDS011;2267;48.816;9.230;2023-12-29T13:35:55;2.57;;;2.10;;
4508;SDS011;2267;48.816;9.230;2023-12-29T13:38:54;1.93;;;1.73;;
4508;SDS011;2267;48.816;9.230;2023-12-29T13:41:25;1.80;;;1.50;;
4508;SDS011;2267;48.816;9.230;2023-12-29T13:43:54;2.20;;;1.57;;
4508;SDS011;2267;48.816;9.230;2023-12-29T13:46:22;1.80;;;1.30;;
4508;SDS011;2267;48.816;9.230;2023-12-29T13:48:49;3.30;;;1.80;;
4508;SDS011;2267;48.816;9.230;2023-12-29T13:51:21;3.43;;;3.10;;
4508;SDS011;2267;48.816;9.230;2023-12-29T13:53:59;2.57;;;2.03;;
4508;SDS011;2267;48.816;9.230;2023-12-29T13:56:26;2.03;;;1.83;;
4508;SDS011;2267;48.816;9.230;2023-12-29T13:58:53;2.40;;;1.70;;
4508;SDS011;2267;48.816;9.230;2023-12-29T14:01:20;2.37;;;1.70;;
4508;SDS011;2267;48.816;9.230;2023-12-29T14:06:49;1.97;;;1.70;;
4508;SDS011;2267;48.816;9.230;2023-12-29T14:09:26;1.97;;;1.63;;
4508;SDS011;2267;48.816;9.230;2023-12-29T14:11:53;1.80;;;1.47;;
4508;SDS011;2267;48.816;9.230;2023-12-29T14:14:26;2.50;;;2.13;;
4508;SDS011;2267;48.816;9.230;2023-12-29T14:16:53;2.63;;;2.43;;
4508;SDS011;2267;48.816;9.230;2023-12-29T14:19:20;3.23;;;1.80;;
4508;SDS011;2267;48.816;9.230;2023-12-29T14:21:52;2.27;;;1.80;;
4508;SDS011;2267;48.816;9.230;2023-12-29T14:24:21;4.30;;;2.00;;
4508;SDS011;2267;48.816;9.230;2023-12-29T14:26:55;2.33;;;1.93;;
4508;SDS011;2267;48.816;9.230;2023-12-29T14:29:23;2.13;;;1.77;;
4508;SDS011;2267;48.816;9.230;2023-12-29T14:31:50;3.00;;;2.03;;
4508;SDS011;2267;48.816;9.230;2023-12-29T14:34:18;2.77;;;2.10;;
4508;SDS011;2267;48.816;9.230;2023-12-29T14:36:46;1.90;;;1.70;;
4508;SDS011;2267;48.816;9.230;2023-12-29T14:39:13;2.70;;;1.80;;
4508;SDS011;2267;48.816;9.230;2023-12-29T14:41:42;2.90;;;1.73;;
4508;SDS011;2267;48.816;9.230;2023-12-29T14:44:09;1.87;;;1.57;;
4508;SDS011;2267;48.816;9.230;2023-12-29T14:46:36;2.50;;;1.87;;
4508;SDS011;2267;48.816;9.230;2023-12-29T14:49:05;2.00;;;1.80;;
4508;SDS011;2267;48.816;9.230;2023-12-29T14:51:34;2.20;;;2.00;;
4508;SDS011;2267;48.816;9.230;2023-12-29T14:54:01;2.00;;;1.70;;
4508;SDS011;2267;48.816;9.230;2023-12-29T14:56:30;2.77;;;1.70;;
4508;SDS011;2267;48.816;9.230;2023-12-29T14:58:57;1.97;;;1.73;;
4508;SDS011;2267;48.816;9.230;2023-12-29T15:01:24;2.13;;;1.83;;
4508;SDS011;2267;48.816;9.230;2023-12-29T15:03:52;2.47;;;1.70;;
4508;SDS011;2267;48.816;9.230;2023-12-29T15:06:20;1.90;;;1.53;;
4508;SDS011;2267;48.816;9.230;2023-12-29T15:08:47;2.40;;;1.80;;
4508;SDS011;2267;48.816;9.230;2023-12-29T15:11:14;2.50;;;1.80;;
4508;SDS011;2267;48.816;9.230;2023-12-29T15:13:40;2.93;;;1.60;;
4508;SDS011;2267;48.816;9.230;2023-12-29T15:16:08;2.30;;;1.93;;
4508;SDS011;2267;48.816;9.230;2023-12-29T15:18:36;2.10;;;1.70;;
4508;SDS011;2267;48.816;9.230;2023-12-29T15:21:03;2.00;;;1.60;;
4508;SDS011;2267;48.816;9.230;2023-12-29T15:23:30;1.83;;;1.43;;
4508;SDS011;2267;48.816;9.230;2023-12-29T15:25:58;2.30;;;1.70;;
4508;SDS011;2267;48.816;9.230;2023-12-29T15:28:25;1.90;;;1.67;;
4508;SDS011;2267;48.816;9.230;2023-12-29T15:30:52;2.10;;;1.70;;
4508;SDS011;2267;48.816;9.230;2023-12-29T15:33:19;2.07;;;1.70;;
4508;SDS011;2267;48.816;9.230;2023-12-29T15:35:46;2.47;;;2.03;;
4508;SDS011;2267;48.816;9.230;2023-12-29T15:38:13;2.20;;;2.00;;
4508;SDS011;2267;48.816;9.230;2023-12-29T15:40:40;3.00;;;1.73;;
4508;SDS011;2267;48.816;9.230;2023-12-29T15:43:07;2.73;;;2.00;;
4508;SDS011;2267;48.816;9.230;2023-12-29T15:45:34;1.93;;;1.70;;
4508;SDS011;2267;48.816;9.230;2023-12-29T15:48:02;3.63;;;1.70;;
4508;SDS011;2267;48.816;9.230;2023-12-29T15:50:30;1.83;;;1.63;;